Flight Track Log - Related Links

Times and Time Zones

All times are in EST time to prevent confusion due to time zone crossing. See the TAM8046 flight status page for this flight to view local times or setup timezone preferences in your user account.

Time Position Orientation Groundspeed Altitude Reporting Facility
EST Latitude Longitude Course Direction KTS MPH feet Rate Location/Type
Thu 06:36:14 AM -23.6124 -46.6022 214° Southwest  Level Estimated
Thu 06:37:14 AM -23.6932 -46.6617 214° Southwest  Level Estimated
Thu 06:38:14 AM -23.7738 -46.7213 214° Southwest  Level Estimated
Thu 06:39:14 AM -23.8545 -46.7810 214° Southwest  Level Estimated
Thu 06:40:14 AM -23.9352 -46.8408 214° Southwest  Level Estimated
Thu 06:41:14 AM -24.0158 -46.9006 214° Southwest  Level Estimated
Thu 06:42:14 AM -24.0964 -46.9605 214° Southwest  Level Estimated
Thu 06:43:14 AM -24.1770 -47.0205 214° Southwest  Level Estimated
Thu 06:44:14 AM -24.2576 -47.0806 214° Southwest  Level Estimated
Thu 06:45:14 AM -24.3381 -47.1407 214° Southwest  Level Estimated
Thu 06:46:14 AM -24.4186 -47.2009 214° Southwest  Level Estimated
Thu 06:47:14 AM -24.4991 -47.2612 214° Southwest  Level Estimated
Thu 06:48:14 AM -24.5796 -47.3215 214° Southwest  Level Estimated
Thu 06:49:14 AM -24.6600 -47.3820 214° Southwest  Level Estimated
Thu 06:50:14 AM -24.7404 -47.4425 214° Southwest  Level Estimated
Thu 06:51:14 AM -24.8208 -47.5031 214° Southwest  Level Estimated
Thu 06:52:14 AM -24.9012 -47.5638 214° Southwest  Level Estimated
Thu 06:53:14 AM -24.9815 -47.6245 214° Southwest  Level Estimated
Thu 06:54:14 AM -25.0618 -47.6853 214° Southwest  Level Estimated
Thu 06:55:14 AM -25.1421 -47.7463 215° Southwest  Level Estimated
Thu 06:56:14 AM -25.2224 -47.8073 215° Southwest  Level Estimated
Thu 06:57:14 AM -25.3026 -47.8683 215° Southwest  Level Estimated
Thu 06:58:14 AM -25.3829 -47.9295 215° Southwest  Level Estimated
Thu 06:59:14 AM -25.4631 -47.9907 215° Southwest  Level Estimated
Thu 07:00:14 AM -25.5432 -48.0520 215° Southwest  Level Estimated
Thu 07:01:14 AM -25.6234 -48.1134 215° Southwest  Level Estimated
Thu 07:02:14 AM -25.7035 -48.1749 215° Southwest  Level Estimated
Thu 07:03:14 AM -25.7836 -48.2365 215° Southwest  Level Estimated
Thu 07:04:14 AM -25.8636 -48.2981 215° Southwest  Level Estimated
Thu 07:05:14 AM -25.9437 -48.3599 215° Southwest  Level Estimated
Thu 07:06:14 AM -26.0237 -48.4217 215° Southwest  Level Estimated
Thu 07:07:14 AM -26.1037 -48.4836 215° Southwest  Level Estimated
Thu 07:08:14 AM -26.1836 -48.5456 215° Southwest  Level Estimated
Thu 07:09:14 AM -26.2635 -48.6076 215° Southwest  Level Estimated
Thu 07:10:14 AM -26.3435 -48.6698 215° Southwest  Level Estimated
Thu 07:11:14 AM -26.4233 -48.7320 215° Southwest  Level Estimated
Thu 07:12:14 AM -26.5032 -48.7944 215° Southwest  Level Estimated
Thu 07:13:14 AM -26.5830 -48.8568 215° Southwest  Level Estimated
Thu 07:14:14 AM -26.6628 -48.9193 215° Southwest  Level Estimated
Thu 07:15:14 AM -26.7426 -48.9819 215° Southwest  Level Estimated
Thu 07:16:14 AM -26.8223 -49.0446 215° Southwest  Level Estimated
Thu 07:17:14 AM -26.9020 -49.1073 215° Southwest  Level Estimated
Thu 07:18:14 AM -26.9817 -49.1702 215° Southwest  Level Estimated
Thu 07:19:14 AM -27.0614 -49.2331 215° Southwest  Level Estimated
Thu 07:20:14 AM -27.1410 -49.2961 215° Southwest  Level Estimated
Thu 07:21:14 AM -27.2206 -49.3593 215° Southwest  Level Estimated
Thu 07:22:14 AM -27.3002 -49.4225 215° Southwest  Level Estimated
Thu 07:23:14 AM -27.3797 -49.4858 215° Southwest  Level Estimated
Thu 07:24:14 AM -27.4593 -49.5492 215° Southwest  Level Estimated
Thu 07:25:14 AM -27.5387 -49.6127 215° Southwest  Level Estimated
Thu 07:26:14 AM -27.6182 -49.6762 215° Southwest  Level Estimated
Thu 07:27:14 AM -27.6976 -49.7399 215° Southwest  Level Estimated
Thu 07:28:14 AM -27.7771 -49.8037 215° Southwest  Level Estimated
Thu 07:29:14 AM -27.8564 -49.8675 215° Southwest  Level Estimated
Thu 07:30:14 AM -27.9358 -49.9315 215° Southwest  Level Estimated
Thu 07:31:14 AM -28.0151 -49.9955 216° Southwest  Level Estimated
Thu 07:32:14 AM -28.0944 -50.0597 216° Southwest  Level Estimated
Thu 07:33:14 AM -28.1736 -50.1239 216° Southwest  Level Estimated
Thu 07:34:14 AM -28.2528 -50.1882 216° Southwest  Level Estimated
Thu 07:35:14 AM -28.3320 -50.2526 216° Southwest  Level Estimated
Thu 07:36:14 AM -28.4112 -50.3172 216° Southwest  Level Estimated
Thu 07:37:14 AM -28.4903 -50.3818 216° Southwest  Level Estimated
Thu 07:38:14 AM -28.5694 -50.4465 216° Southwest  Level Estimated
Thu 07:39:14 AM -28.6485 -50.5113 216° Southwest  Level Estimated
Thu 07:40:14 AM -28.7275 -50.5762 216° Southwest  Level Estimated
Thu 07:41:14 AM -28.8065 -50.6412 216° Southwest  Level Estimated
Thu 07:42:14 AM -28.8855 -50.7063 216° Southwest  Level Estimated
Thu 07:43:14 AM -28.9645 -50.7715 216° Southwest  Level Estimated
Thu 07:44:14 AM -29.0434 -50.8368 216° Southwest  Level Estimated
Thu 07:45:14 AM -29.1223 -50.9022 216° Southwest  Level Estimated
Thu 07:46:14 AM -29.2011 -50.9677 216° Southwest  Level Estimated
Thu 07:47:14 AM -29.2799 -51.0333 216° Southwest  Level Estimated
Thu 07:48:14 AM -29.3587 -51.0990 216° Southwest  Level Estimated
Thu 07:49:14 AM -29.4375 -51.1648 216° Southwest  Level Estimated
Thu 07:50:14 AM -29.5162 -51.2308 216° Southwest  Level Estimated
Thu 07:51:14 AM -29.5949 -51.2968 216° Southwest  Level Estimated
Thu 07:52:14 AM -29.6736 -51.3629 216° Southwest  Level Estimated
Thu 07:53:14 AM -29.7522 -51.4291 216° Southwest  Level Estimated
Thu 07:54:14 AM -29.8308 -51.4954 216° Southwest  Level Estimated
Thu 07:55:14 AM -29.9093 -51.5619 216° Southwest  Level Estimated
Thu 07:56:14 AM -29.9879 -51.6284 216° Southwest  Level Estimated
Thu 07:57:14 AM -30.0664 -51.6950 216° Southwest  Level Estimated
Thu 07:58:14 AM -30.1448 -51.7618 216° Southwest  Level Estimated
Thu 07:59:14 AM -30.2232 -51.8286 216° Southwest  Level Estimated
Thu 08:00:14 AM -30.3016 -51.8956 216° Southwest  Level Estimated
Thu 08:01:14 AM -30.3800 -51.9626 216° Southwest  Level Estimated
Thu 08:02:14 AM -30.4583 -52.0298 217° Southwest  Level Estimated
Thu 08:03:14 AM -30.5366 -52.0971 217° Southwest  Level Estimated
Thu 08:04:14 AM -30.6149 -52.1645 217° Southwest  Level Estimated
Thu 08:05:14 AM -30.6931 -52.2320 217° Southwest  Level Estimated
Thu 08:06:14 AM -30.7713 -52.2996 217° Southwest  Level Estimated
Thu 08:07:14 AM -30.8494 -52.3673 217° Southwest  Level Estimated
Thu 08:08:14 AM -30.9275 -52.4351 217° Southwest  Level Estimated
Thu 08:09:14 AM -31.0056 -52.5031 217° Southwest  Level Estimated
Thu 08:10:14 AM -31.0836 -52.5711 217° Southwest  Level Estimated
Thu 08:11:14 AM -31.1616 -52.6393 217° Southwest  Level Estimated
Thu 08:12:14 AM -31.2396 -52.7075 217° Southwest  Level Estimated
Thu 08:13:14 AM -31.3176 -52.7759 217° Southwest  Level Estimated
Thu 08:14:14 AM -31.3955 -52.8444 217° Southwest  Level Estimated
Thu 08:15:14 AM -31.4733 -52.9130 217° Southwest  Level Estimated
Thu 08:16:14 AM -31.5511 -52.9818 217° Southwest  Level Estimated
Thu 08:17:14 AM -31.6289 -53.0506 217° Southwest  Level Estimated
Thu 08:18:14 AM -31.7067 -53.1195 217° Southwest  Level Estimated
Thu 08:19:14 AM -31.7844 -53.1886 217° Southwest  Level Estimated
Thu 08:20:14 AM -31.8621 -53.2578 217° Southwest  Level Estimated
Thu 08:21:14 AM -31.9397 -53.3271 217° Southwest  Level Estimated
Thu 08:22:14 AM -32.0173 -53.3965 217° Southwest  Level Estimated
Thu 08:23:14 AM -32.0949 -53.4661 217° Southwest  Level Estimated
Thu 08:24:14 AM -32.1724 -53.5357 217° Southwest  Level Estimated
Thu 08:25:14 AM -32.2499 -53.6055 217° Southwest  Level Estimated
Thu 08:26:14 AM -32.3273 -53.6754 217° Southwest  Level Estimated
Thu 08:27:14 AM -32.4047 -53.7454 217° Southwest  Level Estimated
Thu 08:28:14 AM -32.4821 -53.8156 217° Southwest  Level Estimated
Thu 08:29:14 AM -32.5594 -53.8858 217° Southwest  Level Estimated
Thu 08:30:14 AM -32.6367 -53.9562 218° Southwest  Level Estimated
Thu 08:31:14 AM -32.7140 -54.0267 218° Southwest  Level Estimated
Thu 08:32:14 AM -32.7912 -54.0973 218° Southwest  Level Estimated
Thu 08:33:14 AM -32.8684 -54.1681 218° Southwest  Level Estimated
Thu 08:34:14 AM -32.9455 -54.2389 218° Southwest  Level Estimated
Thu 08:35:14 AM -33.0226 -54.3099 218° Southwest  Level Estimated
Thu 08:36:14 AM -33.0997 -54.3810 218° Southwest  Level Estimated
Thu 08:37:14 AM -33.1767 -54.4523 218° Southwest  Level Estimated
Thu 08:38:14 AM -33.2537 -54.5236 218° Southwest  Level Estimated
Thu 08:39:14 AM -33.3306 -54.5951 218° Southwest  Level Estimated
Thu 08:40:14 AM -33.4075 -54.6668 218° Southwest  Level Estimated
Thu 08:41:14 AM -33.4843 -54.7385 218° Southwest  Level Estimated
Thu 08:42:14 AM -33.5611 -54.8104 218° Southwest  Level Estimated
Thu 08:43:14 AM -33.6379 -54.8824 218° Southwest  Level Estimated
Thu 08:44:14 AM -33.7146 -54.9545 218° Southwest  Level Estimated
Thu 08:45:14 AM -33.7913 -55.0267 218° Southwest  Level Estimated
Thu 08:46:14 AM -33.8680 -55.0991 218° Southwest  Level Estimated
Thu 08:47:14 AM -33.9445 -55.1716 218° Southwest  Level Estimated
Thu 08:48:14 AM -34.0211 -55.2443 218° Southwest  Level Estimated
Thu 08:49:14 AM -34.0976 -55.3171 218° Southwest  Level Estimated
Thu 08:50:14 AM -34.1741 -55.3900 218° Southwest  Level Estimated
Thu 08:51:14 AM -34.2505 -55.4630 218° Southwest  Level Estimated
Thu 08:52:14 AM -34.3269 -55.5362 218° Southwest  Level Estimated
Thu 08:53:14 AM -34.4032 -55.6095 218° Southwest  Level Estimated
Thu 08:54:14 AM -34.4795 -55.6830 218° Southwest  Level Estimated
Thu 08:55:14 AM -34.5558 -55.7565 219° Southwest  Level Estimated
Thu 08:56:14 AM -34.6320 -55.8302 219° Southwest  Level Estimated
Thu 08:57:14 AM -34.7082 -55.9041 219° Southwest  Level Estimated
Thu 08:58:14 AM -34.7843 -55.9781 219° Southwest  Level Estimated
Thu 08:59:14 AM -34.8604 -56.0522 39° Northeast  Level Estimated
Thu 09:00:14 AM -34.7843 -55.9781 219° Southwest  Level Estimated
Thu 09:01:14 AM -34.8604 -56.0522 39° Northeast  Level Estimated
Thu 09:02:14 AM -34.7843 -55.9781 219° Southwest  Level Estimated
Thu 09:03:14 AM -34.8604 -56.0522 39° Northeast  Level Estimated
Thu 09:04:14 AM -34.7843 -55.9781 219° Southwest  Level Estimated
Thu 09:05:14 AM -34.8604 -56.0522 39° Northeast  Level Estimated
Thu 09:06:14 AM -34.7843 -55.9781 219° Southwest  Level Estimated
Thu 09:07:14 AM -34.8604 -56.0522 39° Northeast  Level Estimated
Thu 09:08:14 AM -34.7843 -55.9781 219° Southwest  Level Estimated
Thu 09:09:14 AM -34.8604 -56.0522 39° Northeast  Level Estimated
Thu 09:10:14 AM -34.7843 -55.9781 219° Southwest  Level Estimated
Thu 09:11:14 AM -34.8604 -56.0522 39° Northeast  Level Estimated
Thu 09:12:14 AM -34.7843 -55.9781 219° Southwest  Level Estimated
Thu 09:13:14 AM -34.8604 -56.0522 39° Northeast  Level Estimated
Thu 09:14:14 AM -34.7843 -55.9781 39° Northeast  Level Estimated

Login

Don't have an account? Register now (free) for customized features, flight alerts, and more!